sensor_id;sensor_type;location;lat;lon;timestamp;temperature;humidity
33901;DHT22;20193;49.810;6.418;2022-07-23T00:02:01;22.60;77.10
33901;DHT22;20193;49.810;6.418;2022-07-23T00:04:27;22.50;77.20
33901;DHT22;20193;49.810;6.418;2022-07-23T00:06:53;22.50;77.50
33901;DHT22;20193;49.810;6.418;2022-07-23T00:09:18;22.40;77.50
33901;DHT22;20193;49.810;6.418;2022-07-23T00:11:44;22.30;77.60
33901;DHT22;20193;49.810;6.418;2022-07-23T00:14:10;22.20;77.90
33901;DHT22;20193;49.810;6.418;2022-07-23T00:16:35;22.20;78.30
33901;DHT22;20193;49.810;6.418;2022-07-23T00:19:01;22.00;78.60
33901;DHT22;20193;49.810;6.418;2022-07-23T00:21:27;21.90;78.70
33901;DHT22;20193;49.810;6.418;2022-07-23T00:23:53;21.90;78.90
33901;DHT22;20193;49.810;6.418;2022-07-23T00:26:19;21.80;79.00
33901;DHT22;20193;49.810;6.418;2022-07-23T00:28:44;21.80;79.80
33901;DHT22;20193;49.810;6.418;2022-07-23T00:31:10;21.80;79.20
33901;DHT22;20193;49.810;6.418;2022-07-23T00:33:35;21.80;79.30
33901;DHT22;20193;49.810;6.418;2022-07-23T00:36:01;21.70;79.30
33901;DHT22;20193;49.810;6.418;2022-07-23T00:38:27;21.70;79.50
33901;DHT22;20193;49.810;6.418;2022-07-23T00:40:52;21.80;79.80
33901;DHT22;20193;49.810;6.418;2022-07-23T00:43:20;21.80;79.70
33901;DHT22;20193;49.810;6.418;2022-07-23T00:45:47;21.70;80.00
33901;DHT22;20193;49.810;6.418;2022-07-23T00:48:13;21.70;80.40
33901;DHT22;20193;49.810;6.418;2022-07-23T00:50:39;21.70;80.70
33901;DHT22;20193;49.810;6.418;2022-07-23T00:53:05;21.70;80.90
33901;DHT22;20193;49.810;6.418;2022-07-23T00:55:31;21.70;81.00
33901;DHT22;20193;49.810;6.418;2022-07-23T00:57:57;21.70;80.90
33901;DHT22;20193;49.810;6.418;2022-07-23T01:00:23;21.70;80.70
33901;DHT22;20193;49.810;6.418;2022-07-23T01:02:49;21.70;80.70
33901;DHT22;20193;49.810;6.418;2022-07-23T01:05:16;21.70;80.70
33901;DHT22;20193;49.810;6.418;2022-07-23T01:07:43;21.60;81.00
33901;DHT22;20193;49.810;6.418;2022-07-23T01:10:08;21.60;81.30
33901;DHT22;20193;49.810;6.418;2022-07-23T01:12:54;21.60;81.10
33901;DHT22;20193;49.810;6.418;2022-07-23T01:15:20;21.60;81.20
33901;DHT22;20193;49.810;6.418;2022-07-23T01:17:46;21.60;81.30
33901;DHT22;20193;49.810;6.418;2022-07-23T01:20:12;21.60;81.30
33901;DHT22;20193;49.810;6.418;2022-07-23T01:22:38;21.60;81.40
33901;DHT22;20193;49.810;6.418;2022-07-23T01:25:04;21.60;81.50
33901;DHT22;20193;49.810;6.418;2022-07-23T01:27:30;21.60;81.60
33901;DHT22;20193;49.810;6.418;2022-07-23T01:29:57;21.60;81.60
33901;DHT22;20193;49.810;6.418;2022-07-23T01:32:24;21.60;81.70
33901;DHT22;20193;49.810;6.418;2022-07-23T01:34:50;21.60;81.70
33901;DHT22;20193;49.810;6.418;2022-07-23T01:37:16;21.60;81.80
33901;DHT22;20193;49.810;6.418;2022-07-23T01:39:41;21.60;82.10
33901;DHT22;20193;49.810;6.418;2022-07-23T01:42:07;21.60;82.10
33901;DHT22;20193;49.810;6.418;2022-07-23T01:44:32;21.50;82.20
33901;DHT22;20193;49.810;6.418;2022-07-23T01:46:58;21.50;82.40
33901;DHT22;20193;49.810;6.418;2022-07-23T01:49:24;21.50;82.40
33901;DHT22;20193;49.810;6.418;2022-07-23T01:51:49;21.50;82.40
33901;DHT22;20193;49.810;6.418;2022-07-23T01:54:28;21.40;82.20
33901;DHT22;20193;49.810;6.418;2022-07-23T01:56:54;21.40;82.20
33901;DHT22;20193;49.810;6.418;2022-07-23T01:59:20;21.40;82.30
33901;DHT22;20193;49.810;6.418;2022-07-23T02:01:46;21.30;82.20
33901;DHT22;20193;49.810;6.418;2022-07-23T02:04:12;21.20;82.30
33901;DHT22;20193;49.810;6.418;2022-07-23T02:06:38;21.20;82.40
33901;DHT22;20193;49.810;6.418;2022-07-23T02:09:03;21.10;82.40
33901;DHT22;20193;49.810;6.418;2022-07-23T02:11:29;21.10;82.50
33901;DHT22;20193;49.810;6.418;2022-07-23T02:13:55;21.00;82.80
33901;DHT22;20193;49.810;6.418;2022-07-23T02:16:20;21.00;82.80
33901;DHT22;20193;49.810;6.418;2022-07-23T02:18:46;20.90;82.80
33901;DHT22;20193;49.810;6.418;2022-07-23T02:21:12;20.90;82.90
33901;DHT22;20193;49.810;6.418;2022-07-23T02:23:38;20.90;82.90
33901;DHT22;20193;49.810;6.418;2022-07-23T02:26:03;20.80;82.80
33901;DHT22;20193;49.810;6.418;2022-07-23T02:28:29;20.80;82.90
33901;DHT22;20193;49.810;6.418;2022-07-23T02:30:55;20.70;82.80
33901;DHT22;20193;49.810;6.418;2022-07-23T02:33:20;20.70;82.90
33901;DHT22;20193;49.810;6.418;2022-07-23T02:35:46;20.70;83.40
33901;DHT22;20193;49.810;6.418;2022-07-23T02:38:12;20.60;83.80
33901;DHT22;20193;49.810;6.418;2022-07-23T02:40:37;20.60;84.30
33901;DHT22;20193;49.810;6.418;2022-07-23T02:43:03;20.50;84.10
33901;DHT22;20193;49.810;6.418;2022-07-23T02:45:29;20.50;84.20
33901;DHT22;20193;49.810;6.418;2022-07-23T02:47:55;20.40;84.10
33901;DHT22;20193;49.810;6.418;2022-07-23T02:50:20;20.40;84.20
33901;DHT22;20193;49.810;6.418;2022-07-23T02:52:46;20.30;84.30
33901;DHT22;20193;49.810;6.418;2022-07-23T02:55:12;20.30;84.40
33901;DHT22;20193;49.810;6.418;2022-07-23T02:57:37;20.20;84.40
33901;DHT22;20193;49.810;6.418;2022-07-23T03:00:05;20.10;84.30
33901;DHT22;20193;49.810;6.418;2022-07-23T03:02:31;20.10;84.50
33901;DHT22;20193;49.810;6.418;2022-07-23T03:04:57;20.00;85.30
33901;DHT22;20193;49.810;6.418;2022-07-23T03:07:22;19.90;86.00
33901;DHT22;20193;49.810;6.418;2022-07-23T03:09:48;19.90;86.10
33901;DHT22;20193;49.810;6.418;2022-07-23T03:12:13;19.90;86.30
33901;DHT22;20193;49.810;6.418;2022-07-23T03:14:40;19.80;86.20
33901;DHT22;20193;49.810;6.418;2022-07-23T03:17:06;19.80;86.20
33901;DHT22;20193;49.810;6.418;2022-07-23T03:19:31;19.70;86.20
33901;DHT22;20193;49.810;6.418;2022-07-23T03:21:57;19.60;86.10
33901;DHT22;20193;49.810;6.418;2022-07-23T03:24:23;19.60;86.10
33901;DHT22;20193;49.810;6.418;2022-07-23T03:27:08;19.50;86.10
33901;DHT22;20193;49.810;6.418;2022-07-23T03:29:34;19.50;86.10
33901;DHT22;20193;49.810;6.418;2022-07-23T03:32:00;19.40;86.30
33901;DHT22;20193;49.810;6.418;2022-07-23T03:34:25;19.40;86.40
33901;DHT22;20193;49.810;6.418;2022-07-23T03:36:51;19.30;86.50
33901;DHT22;20193;49.810;6.418;2022-07-23T03:39:16;19.30;86.60
33901;DHT22;20193;49.810;6.418;2022-07-23T03:41:42;19.30;86.70
33901;DHT22;20193;49.810;6.418;2022-07-23T03:44:07;19.20;86.70
33901;DHT22;20193;49.810;6.418;2022-07-23T03:46:33;19.20;87.00
33901;DHT22;20193;49.810;6.418;2022-07-23T03:48:59;19.10;87.00
33901;DHT22;20193;49.810;6.418;2022-07-23T03:51:24;19.10;87.20
33901;DHT22;20193;49.810;6.418;2022-07-23T03:53:50;19.10;87.20
33901;DHT22;20193;49.810;6.418;2022-07-23T03:56:15;19.00;87.30
33901;DHT22;20193;49.810;6.418;2022-07-23T03:58:41;19.00;87.40
33901;DHT22;20193;49.810;6.418;2022-07-23T04:01:07;18.90;87.50
33901;DHT22;20193;49.810;6.418;2022-07-23T04:03:32;18.90;87.70
33901;DHT22;20193;49.810;6.418;2022-07-23T04:05:58;18.90;87.90
33901;DHT22;20193;49.810;6.418;2022-07-23T04:08:23;18.80;88.00
33901;DHT22;20193;49.810;6.418;2022-07-23T04:10:50;18.80;88.10
33901;DHT22;20193;49.810;6.418;2022-07-23T04:13:16;18.80;88.30
33901;DHT22;20193;49.810;6.418;2022-07-23T04:15:42;18.80;88.50
33901;DHT22;20193;49.810;6.418;2022-07-23T04:18:07;18.80;88.70
33901;DHT22;20193;49.810;6.418;2022-07-23T04:20:33;18.80;88.80
33901;DHT22;20193;49.810;6.418;2022-07-23T04:22:59;18.80;89.00
33901;DHT22;20193;49.810;6.418;2022-07-23T04:25:24;18.80;89.20
33901;DHT22;20193;49.810;6.418;2022-07-23T04:27:50;18.80;89.40
33901;DHT22;20193;49.810;6.418;2022-07-23T04:30:16;18.80;89.50
33901;DHT22;20193;49.810;6.418;2022-07-23T04:32:41;18.80;89.60
33901;DHT22;20193;49.810;6.418;2022-07-23T04:35:07;18.90;90.00
33901;DHT22;20193;49.810;6.418;2022-07-23T04:37:33;18.90;90.00
33901;DHT22;20193;49.810;6.418;2022-07-23T04:40:00;19.00;90.10
33901;DHT22;20193;49.810;6.418;2022-07-23T04:42:26;19.10;90.20
33901;DHT22;20193;49.810;6.418;2022-07-23T04:44:51;19.20;90.30
33901;DHT22;20193;49.810;6.418;2022-07-23T04:47:17;19.30;90.30
33901;DHT22;20193;49.810;6.418;2022-07-23T04:49:42;19.40;90.30
33901;DHT22;20193;49.810;6.418;2022-07-23T04:52:08;19.50;90.30
33901;DHT22;20193;49.810;6.418;2022-07-23T04:54:33;19.60;90.30
33901;DHT22;20193;49.810;6.418;2022-07-23T04:56:59;19.60;90.30
33901;DHT22;20193;49.810;6.418;2022-07-23T04:59:25;19.70;90.30
33901;DHT22;20193;49.810;6.418;2022-07-23T05:01:50;19.70;90.30
33901;DHT22;20193;49.810;6.418;2022-07-23T05:04:16;19.80;90.30
33901;DHT22;20193;49.810;6.418;2022-07-23T05:06:41;19.80;90.30
33901;DHT22;20193;49.810;6.418;2022-07-23T05:09:07;19.90;90.30
33901;DHT22;20193;49.810;6.418;2022-07-23T05:11:33;19.90;90.30
33901;DHT22;20193;49.810;6.418;2022-07-23T05:13:58;20.00;90.40
33901;DHT22;20193;49.810;6.418;2022-07-23T05:16:24;20.10;90.40
33901;DHT22;20193;49.810;6.418;2022-07-23T05:18:49;20.20;90.30
33901;DHT22;20193;49.810;6.418;2022-07-23T05:21:15;20.20;90.30
33901;DHT22;20193;49.810;6.418;2022-07-23T05:23:40;20.30;90.20
33901;DHT22;20193;49.810;6.418;2022-07-23T05:26:06;20.30;90.10
33901;DHT22;20193;49.810;6.418;2022-07-23T05:28:32;20.40;90.10
33901;DHT22;20193;49.810;6.418;2022-07-23T05:30:57;20.40;90.10
33901;DHT22;20193;49.810;6.418;2022-07-23T05:33:23;20.40;90.00
33901;DHT22;20193;49.810;6.418;2022-07-23T05:35:49;20.50;89.90
33901;DHT22;20193;49.810;6.418;2022-07-23T05:38:14;20.50;89.80
33901;DHT22;20193;49.810;6.418;2022-07-23T05:40:40;20.60;89.90
33901;DHT22;20193;49.810;6.418;2022-07-23T05:43:06;20.60;89.90
33901;DHT22;20193;49.810;6.418;2022-07-23T05:45:31;20.70;90.00
33901;DHT22;20193;49.810;6.418;2022-07-23T05:47:57;20.90;90.10
33901;DHT22;20193;49.810;6.418;2022-07-23T05:50:22;21.20;90.30
33901;DHT22;20193;49.810;6.418;2022-07-23T05:52:48;21.40;90.20
33901;DHT22;20193;49.810;6.418;2022-07-23T05:55:14;21.70;90.00
33901;DHT22;20193;49.810;6.418;2022-07-23T05:57:40;21.90;89.10
33901;DHT22;20193;49.810;6.418;2022-07-23T06:00:07;22.20;88.30
33901;DHT22;20193;49.810;6.418;2022-07-23T06:02:33;22.60;87.00
33901;DHT22;20193;49.810;6.418;2022-07-23T06:04:59;23.00;86.60
33901;DHT22;20193;49.810;6.418;2022-07-23T06:07:24;23.40;85.70
33901;DHT22;20193;49.810;6.418;2022-07-23T06:09:50;23.70;82.90
33901;DHT22;20193;49.810;6.418;2022-07-23T06:12:16;24.10;81.00
33901;DHT22;20193;49.810;6.418;2022-07-23T06:14:42;24.60;80.10
33901;DHT22;20193;49.810;6.418;2022-07-23T06:17:08;25.10;77.80
33901;DHT22;20193;49.810;6.418;2022-07-23T06:19:34;25.50;76.30
33901;DHT22;20193;49.810;6.418;2022-07-23T06:22:00;26.00;73.60
33901;DHT22;20193;49.810;6.418;2022-07-23T06:24:26;26.40;72.90
33901;DHT22;20193;49.810;6.418;2022-07-23T06:26:51;26.80;70.60
33901;DHT22;20193;49.810;6.418;2022-07-23T06:29:17;27.20;68.30
33901;DHT22;20193;49.810;6.418;2022-07-23T06:31:42;27.50;67.10
33901;DHT22;20193;49.810;6.418;2022-07-23T06:34:08;27.90;65.60
33901;DHT22;20193;49.810;6.418;2022-07-23T06:36:34;28.30;64.50
33901;DHT22;20193;49.810;6.418;2022-07-23T06:38:59;28.60;62.70
33901;DHT22;20193;49.810;6.418;2022-07-23T06:41:25;29.00;62.30
33901;DHT22;20193;49.810;6.418;2022-07-23T06:43:51;29.20;61.50
33901;DHT22;20193;49.810;6.418;2022-07-23T06:46:16;29.50;60.80
33901;DHT22;20193;49.810;6.418;2022-07-23T06:48:42;29.80;59.30
33901;DHT22;20193;49.810;6.418;2022-07-23T06:51:08;30.10;58.20
33901;DHT22;20193;49.810;6.418;2022-07-23T06:53:33;30.20;56.60
33901;DHT22;20193;49.810;6.418;2022-07-23T06:55:59;30.50;56.50
33901;DHT22;20193;49.810;6.418;2022-07-23T06:58:28;30.80;55.40
33901;DHT22;20193;49.810;6.418;2022-07-23T07:00:53;31.00;54.10
33901;DHT22;20193;49.810;6.418;2022-07-23T07:03:19;31.30;54.00
33901;DHT22;20193;49.810;6.418;2022-07-23T07:05:45;31.50;53.10
33901;DHT22;20193;49.810;6.418;2022-07-23T07:08:11;31.70;52.90
33901;DHT22;20193;49.810;6.418;2022-07-23T07:10:37;32.00;52.00
33901;DHT22;20193;49.810;6.418;2022-07-23T07:13:02;32.20;51.20
33901;DHT22;20193;49.810;6.418;2022-07-23T07:15:28;32.50;50.20
33901;DHT22;20193;49.810;6.418;2022-07-23T07:17:54;32.50;49.80
33901;DHT22;20193;49.810;6.418;2022-07-23T07:20:19;32.40;49.60
33901;DHT22;20193;49.810;6.418;2022-07-23T07:22:45;32.30;49.60
33901;DHT22;20193;49.810;6.418;2022-07-23T07:25:11;32.10;49.50
33901;DHT22;20193;49.810;6.418;2022-07-23T07:27:36;31.90;49.30
33901;DHT22;20193;49.810;6.418;2022-07-23T07:30:04;31.80;48.90
33901;DHT22;20193;49.810;6.418;2022-07-23T07:32:30;31.80;49.00
33901;DHT22;20193;49.810;6.418;2022-07-23T07:34:58;31.70;49.10
33901;DHT22;20193;49.810;6.418;2022-07-23T07:37:23;31.60;49.00
33901;DHT22;20193;49.810;6.418;2022-07-23T07:39:49;31.60;49.40
33901;DHT22;20193;49.810;6.418;2022-07-23T07:42:15;31.60;48.90
33901;DHT22;20193;49.810;6.418;2022-07-23T07:44:40;31.50;48.40
33901;DHT22;20193;49.810;6.418;2022-07-23T07:47:06;31.50;49.20
33901;DHT22;20193;49.810;6.418;2022-07-23T07:49:36;31.60;49.30
33901;DHT22;20193;49.810;6.418;2022-07-23T07:52:02;31.90;48.70
33901;DHT22;20193;49.810;6.418;2022-07-23T07:54:28;32.10;48.30
33901;DHT22;20193;49.810;6.418;2022-07-23T07:56:57;32.40;47.20
33901;DHT22;20193;49.810;6.418;2022-07-23T07:59:22;32.60;46.20
33901;DHT22;20193;49.810;6.418;2022-07-23T08:01:48;32.80;45.80
33901;DHT22;20193;49.810;6.418;2022-07-23T08:04:13;33.00;45.40
33901;DHT22;20193;49.810;6.418;2022-07-23T08:06:39;33.10;45.30
33901;DHT22;20193;49.810;6.418;2022-07-23T08:09:04;33.30;44.80
33901;DHT22;20193;49.810;6.418;2022-07-23T08:11:30;33.40;44.80
33901;DHT22;20193;49.810;6.418;2022-07-23T08:13:56;33.50;44.50
33901;DHT22;20193;49.810;6.418;2022-07-23T08:16:21;33.70;44.20
33901;DHT22;20193;49.810;6.418;2022-07-23T08:18:47;33.90;43.70
33901;DHT22;20193;49.810;6.418;2022-07-23T08:21:13;34.00;43.50
33901;DHT22;20193;49.810;6.418;2022-07-23T08:23:38;34.20;43.50
33901;DHT22;20193;49.810;6.418;2022-07-23T08:26:04;34.50;43.00
33901;DHT22;20193;49.810;6.418;2022-07-23T08:28:30;34.60;42.60
33901;DHT22;20193;49.810;6.418;2022-07-23T08:30:59;34.80;42.50
33901;DHT22;20193;49.810;6.418;2022-07-23T08:33:24;34.90;42.00
33901;DHT22;20193;49.810;6.418;2022-07-23T08:35:51;34.90;41.50
33901;DHT22;20193;49.810;6.418;2022-07-23T08:38:20;35.00;41.30
33901;DHT22;20193;49.810;6.418;2022-07-23T08:40:51;35.00;41.20
33901;DHT22;20193;49.810;6.418;2022-07-23T08:43:19;35.10;41.30
33901;DHT22;20193;49.810;6.418;2022-07-23T08:45:47;35.10;41.10
33901;DHT22;20193;49.810;6.418;2022-07-23T08:48:15;35.10;41.10
33901;DHT22;20193;49.810;6.418;2022-07-23T08:50:47;35.20;40.50
33901;DHT22;20193;49.810;6.418;2022-07-23T08:53:14;35.20;40.30
33901;DHT22;20193;49.810;6.418;2022-07-23T08:55:47;35.20;40.20
33901;DHT22;20193;49.810;6.418;2022-07-23T08:58:13;35.30;40.30
33901;DHT22;20193;49.810;6.418;2022-07-23T09:00:38;35.50;39.90
33901;DHT22;20193;49.810;6.418;2022-07-23T09:03:04;35.50;39.70
33901;DHT22;20193;49.810;6.418;2022-07-23T09:05:30;35.70;39.00
33901;DHT22;20193;49.810;6.418;2022-07-23T09:08:13;35.70;39.10
33901;DHT22;20193;49.810;6.418;2022-07-23T09:10:54;35.70;38.80
33901;DHT22;20193;49.810;6.418;2022-07-23T09:15:53;35.70;39.30
33901;DHT22;20193;49.810;6.418;2022-07-23T09:18:20;35.50;39.10
33901;DHT22;20193;49.810;6.418;2022-07-23T09:21:12;35.50;39.10
33901;DHT22;20193;49.810;6.418;2022-07-23T09:26:35;35.10;39.30
33901;DHT22;20193;49.810;6.418;2022-07-23T09:29:17;34.70;39.60
33901;DHT22;20193;49.810;6.418;2022-07-23T09:32:00;34.60;39.50
33901;DHT22;20193;49.810;6.418;2022-07-23T09:34:32;34.50;39.90
33901;DHT22;20193;49.810;6.418;2022-07-23T09:37:17;34.50;40.00
33901;DHT22;20193;49.810;6.418;2022-07-23T09:39:45;34.40;40.10
33901;DHT22;20193;49.810;6.418;2022-07-23T09:42:18;34.30;40.20
33901;DHT22;20193;49.810;6.418;2022-07-23T09:44:47;34.20;40.40
33901;DHT22;20193;49.810;6.418;2022-07-23T09:47:13;34.30;40.50
33901;DHT22;20193;49.810;6.418;2022-07-23T09:49:39;34.30;40.00
33901;DHT22;20193;49.810;6.418;2022-07-23T09:52:05;34.40;40.10
33901;DHT22;20193;49.810;6.418;2022-07-23T09:54:36;34.30;40.20
33901;DHT22;20193;49.810;6.418;2022-07-23T09:57:06;34.30;40.30
33901;DHT22;20193;49.810;6.418;2022-07-23T09:59:36;34.30;40.20
33901;DHT22;20193;49.810;6.418;2022-07-23T10:02:04;34.30;40.20
33901;DHT22;20193;49.810;6.418;2022-07-23T10:04:32;34.20;40.30
33901;DHT22;20193;49.810;6.418;2022-07-23T10:07:00;34.20;40.60
33901;DHT22;20193;49.810;6.418;2022-07-23T10:09:34;34.20;40.70
33901;DHT22;20193;49.810;6.418;2022-07-23T10:12:05;34.20;40.50
33901;DHT22;20193;49.810;6.418;2022-07-23T10:14:31;34.10;40.60
33901;DHT22;20193;49.810;6.418;2022-07-23T10:16:58;34.10;40.80
33901;DHT22;20193;49.810;6.418;2022-07-23T10:19:24;33.80;40.70
33901;DHT22;20193;49.810;6.418;2022-07-23T10:21:55;33.80;40.90
33901;DHT22;20193;49.810;6.418;2022-07-23T10:37:26;33.40;42.10
33901;DHT22;20193;49.810;6.418;2022-07-23T10:40:20;33.40;42.30
33901;DHT22;20193;49.810;6.418;2022-07-23T10:42:49;33.30;42.40
33901;DHT22;20193;49.810;6.418;2022-07-23T10:45:31;33.30;42.00
33901;DHT22;20193;49.810;6.418;2022-07-23T10:48:16;33.10;42.30
33901;DHT22;20193;49.810;6.418;2022-07-23T10:50:43;32.90;42.20
33901;DHT22;20193;49.810;6.418;2022-07-23T10:53:16;32.80;42.40
33901;DHT22;20193;49.810;6.418;2022-07-23T10:55:51;32.70;42.50
33901;DHT22;20193;49.810;6.418;2022-07-23T10:58:22;32.50;42.80
33901;DHT22;20193;49.810;6.418;2022-07-23T11:00:49;32.40;43.00
33901;DHT22;20193;49.810;6.418;2022-07-23T11:03:33;32.40;42.90
33901;DHT22;20193;49.810;6.418;2022-07-23T11:06:01;32.30;42.80
33901;DHT22;20193;49.810;6.418;2022-07-23T11:08:27;32.20;42.70
33901;DHT22;20193;49.810;6.418;2022-07-23T11:10:55;32.20;43.20
33901;DHT22;20193;49.810;6.418;2022-07-23T11:24:14;32.10;44.30
33901;DHT22;20193;49.810;6.418;2022-07-23T11:31:58;32.10;43.70
33901;DHT22;20193;49.810;6.418;2022-07-23T11:34:52;32.20;44.00
33901;DHT22;20193;49.810;6.418;2022-07-23T11:37:39;32.20;43.20
33901;DHT22;20193;49.810;6.418;2022-07-23T11:40:11;32.10;43.10
33901;DHT22;20193;49.810;6.418;2022-07-23T11:42:57;32.20;43.60
33901;DHT22;20193;49.810;6.418;2022-07-23T11:45:28;32.30;43.30
33901;DHT22;20193;49.810;6.418;2022-07-23T11:47:54;32.40;42.80
33901;DHT22;20193;49.810;6.418;2022-07-23T11:50:23;32.40;43.30
33901;DHT22;20193;49.810;6.418;2022-07-23T11:52:50;32.50;43.10
33901;DHT22;20193;49.810;6.418;2022-07-23T11:55:16;32.50;43.00
33901;DHT22;20193;49.810;6.418;2022-07-23T11:57:43;32.50;42.80
33901;DHT22;20193;49.810;6.418;2022-07-23T12:00:15;32.50;42.70
33901;DHT22;20193;49.810;6.418;2022-07-23T12:02:50;32.50;42.50
33901;DHT22;20193;49.810;6.418;2022-07-23T12:05:24;32.50;42.50
33901;DHT22;20193;49.810;6.418;2022-07-23T12:07:53;32.60;42.60
33901;DHT22;20193;49.810;6.418;2022-07-23T12:10:54;32.50;42.30
33901;DHT22;20193;49.810;6.418;2022-07-23T12:13:18;32.60;42.60
33901;DHT22;20193;49.810;6.418;2022-07-23T12:15:56;32.60;42.50
33901;DHT22;20193;49.810;6.418;2022-07-23T12:18:24;32.60;43.10
33901;DHT22;20193;49.810;6.418;2022-07-23T12:20:52;32.60;43.10
33901;DHT22;20193;49.810;6.418;2022-07-23T12:23:19;32.60;42.90
33901;DHT22;20193;49.810;6.418;2022-07-23T12:25:47;32.60;43.10
33901;DHT22;20193;49.810;6.418;2022-07-23T12:28:28;32.50;43.00
33901;DHT22;20193;49.810;6.418;2022-07-23T12:30:55;32.60;42.50
33901;DHT22;20193;49.810;6.418;2022-07-23T12:33:27;32.40;42.50
33901;DHT22;20193;49.810;6.418;2022-07-23T12:35:55;32.40;42.30
33901;DHT22;20193;49.810;6.418;2022-07-23T12:38:23;32.40;42.20
33901;DHT22;20193;49.810;6.418;2022-07-23T12:40:53;32.30;42.20
33901;DHT22;20193;49.810;6.418;2022-07-23T12:43:25;32.40;42.80
33901;DHT22;20193;49.810;6.418;2022-07-23T12:51:16;32.30;42.70
33901;DHT22;20193;49.810;6.418;2022-07-23T12:53:44;32.30;43.00
33901;DHT22;20193;49.810;6.418;2022-07-23T12:56:13;32.30;42.80
33901;DHT22;20193;49.810;6.418;2022-07-23T12:58:57;32.20;43.10
33901;DHT22;20193;49.810;6.418;2022-07-23T13:01:27;32.20;42.90
33901;DHT22;20193;49.810;6.418;2022-07-23T13:06:23;32.20;42.80
33901;DHT22;20193;49.810;6.418;2022-07-23T13:08:48;32.30;42.30
33901;DHT22;20193;49.810;6.418;2022-07-23T13:11:14;32.30;42.40
33901;DHT22;20193;49.810;6.418;2022-07-23T13:13:41;32.40;42.90
33901;DHT22;20193;49.810;6.418;2022-07-23T13:16:06;32.40;41.30
33901;DHT22;20193;49.810;6.418;2022-07-23T13:18:32;32.50;41.40
33901;DHT22;20193;49.810;6.418;2022-07-23T13:20:58;32.50;41.60
33901;DHT22;20193;49.810;6.418;2022-07-23T13:23:25;32.70;41.50
33901;DHT22;20193;49.810;6.418;2022-07-23T13:25:51;32.80;41.60
33901;DHT22;20193;49.810;6.418;2022-07-23T13:28:18;32.90;41.40
33901;DHT22;20193;49.810;6.418;2022-07-23T13:30:45;33.00;41.30
33901;DHT22;20193;49.810;6.418;2022-07-23T13:33:11;33.10;41.10
33901;DHT22;20193;49.810;6.418;2022-07-23T13:35:37;33.20;41.00
33901;DHT22;20193;49.810;6.418;2022-07-23T13:38:04;33.30;41.10
33901;DHT22;20193;49.810;6.418;2022-07-23T13:40:33;33.30;41.10
33901;DHT22;20193;49.810;6.418;2022-07-23T13:42:59;33.30;41.10
33901;DHT22;20193;49.810;6.418;2022-07-23T13:45:25;33.30;40.80
33901;DHT22;20193;49.810;6.418;2022-07-23T13:47:50;33.30;40.70
33901;DHT22;20193;49.810;6.418;2022-07-23T13:50:16;33.30;40.70
33901;DHT22;20193;49.810;6.418;2022-07-23T13:52:42;33.30;40.80
33901;DHT22;20193;49.810;6.418;2022-07-23T13:55:08;33.20;41.00
33901;DHT22;20193;49.810;6.418;2022-07-23T13:57:34;33.20;40.70
33901;DHT22;20193;49.810;6.418;2022-07-23T14:00:00;33.20;40.60
33901;DHT22;20193;49.810;6.418;2022-07-23T14:02:26;33.10;40.80
33901;DHT22;20193;49.810;6.418;2022-07-23T14:04:52;33.00;40.60
33901;DHT22;20193;49.810;6.418;2022-07-23T14:07:18;33.00;40.20
33901;DHT22;20193;49.810;6.418;2022-07-23T14:09:43;32.90;40.60
33901;DHT22;20193;49.810;6.418;2022-07-23T14:12:10;32.80;41.20
33901;DHT22;20193;49.810;6.418;2022-07-23T14:14:36;32.70;41.50
33901;DHT22;20193;49.810;6.418;2022-07-23T14:17:02;32.60;41.60
33901;DHT22;20193;49.810;6.418;2022-07-23T14:19:31;32.50;41.50
33901;DHT22;20193;49.810;6.418;2022-07-23T14:21:56;32.30;41.60
33901;DHT22;20193;49.810;6.418;2022-07-23T14:24:22;32.20;41.70
33901;DHT22;20193;49.810;6.418;2022-07-23T14:26:48;32.10;42.10
33901;DHT22;20193;49.810;6.418;2022-07-23T14:29:13;32.00;42.40
33901;DHT22;20193;49.810;6.418;2022-07-23T14:31:39;31.80;42.20
33901;DHT22;20193;49.810;6.418;2022-07-23T14:34:05;31.70;42.10
33901;DHT22;20193;49.810;6.418;2022-07-23T14:36:33;31.70;42.20
33901;DHT22;20193;49.810;6.418;2022-07-23T14:38:59;31.70;42.00
33901;DHT22;20193;49.810;6.418;2022-07-23T14:41:25;31.70;41.90
33901;DHT22;20193;49.810;6.418;2022-07-23T14:43:51;31.60;42.10
33901;DHT22;20193;49.810;6.418;2022-07-23T14:46:16;31.60;42.30
33901;DHT22;20193;49.810;6.418;2022-07-23T14:48:42;31.60;42.50
33901;DHT22;20193;49.810;6.418;2022-07-23T14:51:08;31.60;42.90
33901;DHT22;20193;49.810;6.418;2022-07-23T14:53:33;31.60;42.80
33901;DHT22;20193;49.810;6.418;2022-07-23T14:55:59;31.60;43.10
33901;DHT22;20193;49.810;6.418;2022-07-23T14:58:25;31.60;43.10
33901;DHT22;20193;49.810;6.418;2022-07-23T15:00:51;31.60;43.00
33901;DHT22;20193;49.810;6.418;2022-07-23T15:03:17;31.60;43.20
33901;DHT22;20193;49.810;6.418;2022-07-23T15:05:43;31.70;43.00
33901;DHT22;20193;49.810;6.418;2022-07-23T15:08:09;31.70;42.90
33901;DHT22;20193;49.810;6.418;2022-07-23T15:10:35;31.70;42.90
33901;DHT22;20193;49.810;6.418;2022-07-23T15:13:01;31.80;42.90
33901;DHT22;20193;49.810;6.418;2022-07-23T15:15:26;31.80;42.70
33901;DHT22;20193;49.810;6.418;2022-07-23T15:17:52;31.80;42.90
33901;DHT22;20193;49.810;6.418;2022-07-23T15:20:17;31.80;42.90
33901;DHT22;20193;49.810;6.418;2022-07-23T15:22:43;31.80;42.60
33901;DHT22;20193;49.810;6.418;2022-07-23T15:25:11;31.70;42.50
33901;DHT22;20193;49.810;6.418;2022-07-23T15:27:36;31.80;42.60
33901;DHT22;20193;49.810;6.418;2022-07-23T15:30:02;31.90;42.70
33901;DHT22;20193;49.810;6.418;2022-07-23T15:32:28;31.90;42.10
33901;DHT22;20193;49.810;6.418;2022-07-23T15:34:54;31.90;42.00
33901;DHT22;20193;49.810;6.418;2022-07-23T15:37:20;31.90;41.80
33901;DHT22;20193;49.810;6.418;2022-07-23T15:39:48;31.90;42.00
33901;DHT22;20193;49.810;6.418;2022-07-23T15:42:14;32.00;42.40
33901;DHT22;20193;49.810;6.418;2022-07-23T15:44:40;31.90;42.40
33901;DHT22;20193;49.810;6.418;2022-07-23T15:47:12;32.00;42.70
33901;DHT22;20193;49.810;6.418;2022-07-23T15:49:37;31.90;42.50
33901;DHT22;20193;49.810;6.418;2022-07-23T15:52:06;31.90;42.80
33901;DHT22;20193;49.810;6.418;2022-07-23T15:54:31;31.90;43.10
33901;DHT22;20193;49.810;6.418;2022-07-23T15:56:57;31.90;43.40
33901;DHT22;20193;49.810;6.418;2022-07-23T15:59:23;31.80;43.10
33901;DHT22;20193;49.810;6.418;2022-07-23T16:01:49;31.80;43.10
33901;DHT22;20193;49.810;6.418;2022-07-23T16:04:15;31.80;43.40
33901;DHT22;20193;49.810;6.418;2022-07-23T16:06:41;31.80;43.70
33901;DHT22;20193;49.810;6.418;2022-07-23T16:09:07;31.80;43.80
33901;DHT22;20193;49.810;6.418;2022-07-23T16:11:33;31.90;43.60
33901;DHT22;20193;49.810;6.418;2022-07-23T16:13:59;31.90;43.60